Time;durP1;ratioP1;P1;durP2;ratioP2;P2;SDS_P1;SDS_P2;PMS_P1;PMS_P2;Temp;Humidity;BMP_temperature;BMP_pressure;BME280_temperature;BME280_humidity;BME280_pressure;Samples;Min_cycle;Max_cycle;Signal;HPM_P1;HPM_P2
2021/04/27 00:01:56;;;;;;;0.00;0.00;;;13.50;56.70;;;;;;4160307;28;20052;-46
2021/04/27 00:04:17;;;;;;;0.00;0.00;;;13.50;56.70;;;;;;4160643;28;20045;-44
2021/04/27 00:06:39;;;;;;;0.00;0.00;;;13.50;56.70;;;;;;4160828;28;20500;-45
2021/04/27 00:08:59;;;;;;;;;;;13.40;56.70;;;;;;4160832;28;20045;-44
2021/04/27 00:11:20;;;;;;;0.15;0.15;;;13.40;56.80;;;;;;4160763;28;19925;-47
2021/04/27 00:13:42;;;;;;;0.00;0.00;;;13.40;56.90;;;;;;4160798;28;20050;-45
2021/04/27 00:16:03;;;;;;;;;;;13.40;56.90;;;;;;4144854;28;20054;-44
2021/04/27 00:18:24;;;;;;;0.00;0.00;;;13.40;57.00;;;;;;4144925;28;19933;-46
2021/04/27 00:20:45;;;;;;;;;;;13.40;57.00;;;;;;4161215;28;20108;-44
2021/04/27 00:23:07;;;;;;;0.00;0.00;;;13.40;57.10;;;;;;4145436;28;19999;-45
2021/04/27 00:25:29;;;;;;;0.75;0.75;;;13.40;57.20;;;;;;4160382;28;20091;-44
2021/04/27 00:27:51;;;;;;;0.00;0.00;;;13.40;57.10;;;;;;4160651;28;20045;-45
2021/04/27 00:30:14;;;;;;;0.00;0.00;;;13.40;57.30;;;;;;4160007;28;20049;-44
2021/04/27 00:32:35;;;;;;;0.00;0.00;;;13.40;57.30;;;;;;4159995;28;20053;-47
2021/04/27 00:34:57;;;;;;;0.00;0.00;;;13.40;57.40;;;;;;4160042;28;20080;-45
2021/04/27 00:37:18;;;;;;;0.00;0.00;;;13.40;57.40;;;;;;4160086;28;20053;-45
2021/04/27 00:39:40;;;;;;;0.25;0.25;;;13.40;57.50;;;;;;4160097;28;20107;-44
2021/04/27 00:42:00;;;;;;;0.00;0.00;;;13.40;57.50;;;;;;4160191;28;20549;-44
2021/04/27 00:44:21;;;;;;;0.00;0.00;;;13.40;57.80;;;;;;4160134;28;20419;-44
2021/04/27 00:46:42;;;;;;;0.57;0.57;;;13.40;57.80;;;;;;4159911;28;20119;-44
2021/04/27 00:49:04;;;;;;;0.05;0.05;;;13.40;57.60;;;;;;4159804;28;20057;-45
2021/04/27 00:51:25;;;;;;;0.10;0.10;;;13.40;57.60;;;;;;4145140;28;20802;-45
2021/04/27 00:53:46;;;;;;;0.00;0.00;;;13.30;58.30;;;;;;4159432;28;20495;-44
2021/04/27 00:56:08;;;;;;;0.00;0.00;;;13.40;57.70;;;;;;4159724;28;20084;-45
2021/04/27 00:58:31;;;;;;;0.00;0.00;;;13.30;57.60;;;;;;4160039;28;20060;-48
2021/04/27 01:00:53;;;;;;;1.02;0.35;;;13.30;57.70;;;;;;4159789;28;20053;-47
2021/04/27 01:03:14;;;;;;;0.43;0.43;;;13.30;57.70;;;;;;4158507;28;20056;-45
2021/04/27 01:05:38;;;;;;;0.10;0.10;;;13.30;57.70;;;;;;4158681;28;20507;-45
2021/04/27 01:08:07;;;;;;;0.00;0.00;;;13.30;58.50;;;;;;4143453;28;20134;-45
2021/04/27 01:10:43;;;;;;;0.00;0.00;;;13.30;57.90;;;;;;4151833;28;20075;-44
2021/04/27 01:13:10;;;;;;;0.00;0.00;;;13.30;58.10;;;;;;4144451;28;20050;-45
2021/04/27 01:15:32;;;;;;;0.00;0.00;;;13.30;58.20;;;;;;4144530;28;20128;-44
2021/04/27 01:17:55;;;;;;;0.00;0.00;;;13.30;58.10;;;;;;4144552;28;20555;-45
2021/04/27 01:20:22;;;;;;;0.00;0.00;;;13.30;58.10;;;;;;4144634;28;20053;-47
2021/04/27 01:23:08;;;;;;;0.00;0.00;;;13.30;58.10;;;;;;4143893;28;20050;-44
2021/04/27 01:25:34;;;;;;;0.15;0.15;;;13.30;58.20;;;;;;4158890;28;20389;-45
2021/04/27 01:27:57;;;;;;;0.00;0.00;;;13.30;58.20;;;;;;4144667;28;20052;-44
2021/04/27 01:30:19;;;;;;;0.00;0.00;;;13.20;58.10;;;;;;4144841;28;20050;-44
2021/04/27 01:32:41;;;;;;;0.00;0.00;;;13.20;58.10;;;;;;4159246;28;20045;-45
2021/04/27 01:35:02;;;;;;;0.05;0.05;;;13.20;58.20;;;;;;4144250;28;20049;-44
2021/04/27 01:37:42;;;;;;;0.00;0.00;;;13.20;58.20;;;;;;4144167;28;20137;-45
2021/04/27 01:40:03;;;;;;;;;;;13.20;58.20;;;;;;4144804;28;20139;-45
2021/04/27 01:42:25;;;;;;;0.00;0.00;;;13.20;58.40;;;;;;4159159;28;20459;-44
2021/04/27 01:44:47;;;;;;;0.00;0.00;;;13.20;58.40;;;;;;4127900;28;20090;-45
2021/04/27 01:47:10;;;;;;;0.00;0.00;;;13.20;58.40;;;;;;4142908;28;20552;-46
2021/04/27 01:49:32;;;;;;;0.00;0.00;;;13.20;58.40;;;;;;4141879;28;20089;-44
2021/04/27 01:52:26;;;;;;;0.00;0.00;;;13.20;58.50;;;;;;4125883;28;20069;-45
2021/04/27 01:54:50;;;;;;;0.00;0.00;;;13.10;58.50;;;;;;4144150;28;20108;-46
2021/04/27 01:57:12;;;;;;;0.00;0.00;;;13.10;58.50;;;;;;4144068;28;20113;-44
2021/04/27 01:59:38;;;;;;;0.00;0.00;;;13.10;58.60;;;;;;4143835;28;20068;-43
2021/04/27 02:02:06;;;;;;;0.00;0.00;;;13.10;58.70;;;;;;4158239;28;20056;-45
2021/04/27 02:04:29;;;;;;;0.00;0.00;;;13.10;58.70;;;;;;4154525;28;20463;-46
2021/04/27 02:07:04;;;;;;;0.08;0.08;;;13.10;58.70;;;;;;4143635;28;20076;-51
2021/04/27 02:09:29;;;;;;;0.00;0.00;;;13.10;58.70;;;;;;4142611;28;20053;-45
2021/04/27 02:12:11;;;;;;;0.00;0.00;;;13.10;58.80;;;;;;4142075;28;20112;-43
2021/04/27 02:14:34;;;;;;;0.00;0.00;;;13.10;58.80;;;;;;4126743;28;20069;-46
2021/04/27 02:17:01;;;;;;;0.00;0.00;;;13.10;58.80;;;;;;4136984;28;20054;-43
2021/04/27 02:19:25;;;;;;;0.00;0.00;;;13.10;58.80;;;;;;4158910;28;20659;-44
2021/04/27 02:22:04;;;;;;;0.00;0.00;;;13.00;58.90;;;;;;4158535;28;20053;-45
2021/04/27 02:24:38;;;;;;;0.22;0.22;;;13.00;58.90;;;;;;4143063;28;20045;-43
2021/04/27 02:27:00;;;;;;;0.00;0.00;;;13.00;58.90;;;;;;4143331;28;20057;-43
2021/04/27 02:29:27;;;;;;;0.30;0.30;;;13.00;58.90;;;;;;4143405;28;20517;-43
2021/04/27 02:31:49;;;;;;;0.10;0.10;;;13.00;58.90;;;;;;4158126;28;20125;-44
2021/04/27 02:34:11;;;;;;;0.00;0.00;;;13.00;59.00;;;;;;4143131;28;20053;-45
2021/04/27 02:36:38;;;;;;;2.55;2.35;;;13.00;59.00;;;;;;4143604;28;20112;-44
2021/04/27 02:39:20;;;;;;;0.08;0.08;;;13.00;59.10;;;;;;4157697;28;20057;-43
2021/04/27 02:41:41;;;;;;;0.00;0.00;;;13.00;59.10;;;;;;4158380;28;20576;-43
2021/04/27 02:44:22;;;;;;;0.38;0.32;;;13.00;59.20;;;;;;4158450;28;20049;-49
2021/04/27 02:46:46;;;;;;;0.00;0.00;;;12.90;59.20;;;;;;4157299;28;20517;-44
2021/04/27 02:49:08;;;;;;;0.10;0.10;;;13.00;59.30;;;;;;4158847;28;20099;-45
2021/04/27 02:51:32;;;;;;;0.00;0.00;;;12.90;59.30;;;;;;4154449;28;20080;-45
2021/04/27 02:53:59;;;;;;;0.00;0.00;;;12.90;59.30;;;;;;4158015;28;20172;-42
2021/04/27 02:56:22;;;;;;;0.10;0.10;;;12.90;59.30;;;;;;4157339;28;20128;-44
2021/04/27 02:58:45;;;;;;;6.40;0.50;;;12.90;59.30;;;;;;4139502;28;20046;-46
2021/04/27 03:01:07;;;;;;;0.22;0.22;;;12.90;59.30;;;;;;4142245;28;20049;-45
2021/04/27 03:03:28;;;;;;;0.10;0.10;;;12.90;59.30;;;;;;4158063;28;20758;-44
2021/04/27 03:05:49;;;;;;;0.20;0.20;;;12.90;59.30;;;;;;4143072;28;20046;-43
2021/04/27 03:08:11;;;;;;;;;;;12.90;59.30;;;;;;4158204;28;20076;-45
2021/04/27 03:10:33;;;;;;;0.00;0.00;;;12.90;59.50;;;;;;4158156;28;19928;-45
2021/04/27 03:12:55;;;;;;;0.43;0.43;;;12.90;59.40;;;;;;4156673;28;20045;-45
2021/04/27 03:15:18;;;;;;;0.00;0.00;;;12.90;59.40;;;;;;4156908;28;20419;-46
2021/04/27 03:17:40;;;;;;;0.00;0.00;;;12.90;59.50;;;;;;4154409;28;20051;-44
2021/04/27 03:20:04;;;;;;;0.20;0.20;;;12.80;59.50;;;;;;4140826;28;20073;-45
2021/04/27 03:22:30;;;;;;;0.00;0.00;;;12.90;60.30;;;;;;4146522;28;20184;-45
2021/04/27 03:24:51;;;;;;;;;;;12.80;59.50;;;;;;4157127;28;20602;-44
2021/04/27 03:27:14;;;;;;;0.00;0.00;;;12.90;59.70;;;;;;4157385;28;19951;-44
2021/04/27 03:29:49;;;;;;;0.00;0.00;;;12.80;59.60;;;;;;4156621;28;20050;-43
2021/04/27 03:32:12;;;;;;;0.00;0.00;;;12.80;59.60;;;;;;4156766;28;20439;-46
2021/04/27 03:34:33;;;;;;;0.75;0.75;;;12.80;59.60;;;;;;4158321;28;20057;-44
2021/04/27 03:36:55;;;;;;;0.00;0.00;;;12.80;59.70;;;;;;4156372;28;20439;-43
2021/04/27 03:39:16;;;;;;;0.00;0.00;;;12.80;59.70;;;;;;4156907;28;20064;-44
2021/04/27 03:41:37;;;;;;;4.53;0.65;;;12.80;59.70;;;;;;4141772;28;20511;-45
2021/04/27 03:43:59;;;;;;;1.10;0.63;;;12.80;59.80;;;;;;4139115;28;20077;-44
2021/04/27 03:46:20;;;;;;;0.00;0.00;;;12.80;59.80;;;;;;4142644;28;20050;-44
2021/04/27 03:48:41;;;;;;;0.00;0.00;;;12.70;59.70;;;;;;4157739;28;20129;-47
2021/04/27 03:51:03;;;;;;;0.10;0.10;;;12.80;59.80;;;;;;4139033;28;20154;-43
2021/04/27 03:53:45;;;;;;;0.00;0.00;;;12.70;59.70;;;;;;4157187;28;20046;-43
2021/04/27 03:56:17;;;;;;;0.00;0.00;;;12.70;59.80;;;;;;4157952;28;20057;-46
2021/04/27 03:58:39;;;;;;;0.00;0.00;;;12.70;59.80;;;;;;4146657;28;20044;-44
2021/04/27 04:01:05;;;;;;;0.15;0.15;;;12.70;59.80;;;;;;4142209;28;20046;-45
2021/04/27 04:03:27;;;;;;;0.43;0.22;;;12.70;59.80;;;;;;4142600;28;20528;-44
2021/04/27 04:05:48;;;;;;;0.00;0.00;;;12.70;59.80;;;;;;4157636;28;20065;-45
2021/04/27 04:08:29;;;;;;;0.00;0.00;;;12.70;59.80;;;;;;4157004;28;20060;-46
2021/04/27 04:10:50;;;;;;;0.00;0.00;;;12.70;59.90;;;;;;4157458;28;20075;-44
2021/04/27 04:13:11;;;;;;;0.00;0.00;;;12.70;59.90;;;;;;4153312;28;20061;-45
2021/04/27 04:15:32;;;;;;;0.20;0.20;;;12.60;59.90;;;;;;4157776;28;20103;-44
2021/04/27 04:17:54;;;;;;;0.00;0.00;;;12.70;60.00;;;;;;4156430;28;20527;-43
2021/04/27 04:20:17;;;;;;;0.00;0.00;;;12.70;60.00;;;;;;4156003;28;20055;-48
2021/04/27 04:22:49;;;;;;;0.25;0.25;;;12.70;60.00;;;;;;4155756;28;20471;-50
2021/04/27 04:25:14;;;;;;;0.00;0.00;;;12.60;60.00;;;;;;4139055;28;20060;-44
2021/04/27 04:27:36;;;;;;;0.00;0.00;;;12.60;60.00;;;;;;4140055;28;20060;-44
2021/04/27 04:30:05;;;;;;;0.32;0.08;;;12.60;60.00;;;;;;4156427;28;20519;-47
2021/04/27 04:32:32;;;;;;;0.00;0.00;;;12.60;60.00;;;;;;4141152;28;20500;-47
2021/04/27 04:35:18;;;;;;;0.00;0.00;;;12.60;60.10;;;;;;4140511;28;20157;-45
2021/04/27 04:37:59;;;;;;;0.00;0.00;;;12.60;60.10;;;;;;4147512;28;20095;-43
2021/04/27 04:40:39;;;;;;;0.00;0.00;;;12.60;60.10;;;;;;4160416;28;20446;-45
2021/04/27 04:43:20;;;;;;;0.15;0.15;;;12.60;60.10;;;;;;4160163;28;20184;-43
2021/04/27 04:45:59;;;;;;;0.00;0.00;;;12.60;60.10;;;;;;4160019;28;20046;-43
2021/04/27 04:48:39;;;;;;;0.00;0.00;;;12.60;60.20;;;;;;4159909;28;20482;-44
2021/04/27 04:51:09;;;;;;;0.00;0.00;;;12.60;60.20;;;;;;4145000;28;20125;-43
2021/04/27 04:53:47;;;;;;;0.00;0.00;;;12.60;60.20;;;;;;4131561;28;20475;-44
2021/04/27 04:56:08;;;;;;;0.20;0.20;;;12.60;60.20;;;;;;4143829;28;20054;-42
2021/04/27 04:58:31;;;;;;;0.47;0.47;;;12.60;60.20;;;;;;4143739;28;20073;-43
2021/04/27 05:00:57;;;;;;;0.10;0.10;;;12.60;60.20;;;;;;4128705;28;20053;-43
2021/04/27 05:03:42;;;;;;;0.77;0.77;;;12.60;60.30;;;;;;4135917;28;20050;-45
2021/04/27 05:06:23;;;;;;;0.20;0.20;;;12.50;60.70;;;;;;4146830;28;20061;-45
2021/04/27 05:09:04;;;;;;;0.00;0.00;;;12.60;61.60;;;;;;4159849;28;20045;-44
2021/04/27 05:11:44;;;;;;;0.00;0.00;;;12.70;61.50;;;;;;4159432;28;20127;-44
2021/04/27 05:14:24;;;;;;;0.00;0.00;;;12.70;61.20;;;;;;4132812;28;20053;-43
2021/04/27 05:16:45;;;;;;;0.00;0.00;;;12.70;60.70;;;;;;4159754;28;20515;-43
2021/04/27 05:19:06;;;;;;;0.00;0.00;;;12.70;60.60;;;;;;4159125;28;20419;-47
2021/04/27 05:21:27;;;;;;;0.03;0.03;;;12.80;60.30;;;;;;4143702;28;20069;-45
2021/04/27 05:23:48;;;;;;;0.00;0.00;;;12.80;60.10;;;;;;4144212;28;20542;-44
2021/04/27 05:26:09;;;;;;;0.00;0.00;;;12.80;59.90;;;;;;4158257;28;20045;-45
2021/04/27 05:28:31;;;;;;;0.00;0.00;;;12.80;59.80;;;;;;4159459;28;20045;-47
2021/04/27 05:30:52;;;;;;;0.00;0.00;;;12.80;59.80;;;;;;4159616;28;20049;-49
2021/04/27 05:33:13;;;;;;;0.00;0.00;;;12.90;59.80;;;;;;4159410;28;20068;-44
2021/04/27 05:35:35;;;;;;;0.05;0.05;;;12.90;59.80;;;;;;4159528;28;20419;-45
2021/04/27 05:37:56;;;;;;;;;;;12.90;59.70;;;;;;4159713;28;20124;-44
2021/04/27 05:40:18;;;;;;;0.00;0.00;;;12.90;59.60;;;;;;4159283;28;19979;-46
2021/04/27 05:42:39;;;;;;;;;;;12.90;59.50;;;;;;4159896;28;20412;-43
2021/04/27 05:45:01;;;;;;;0.00;0.00;;;13.00;59.50;;;;;;4159682;28;19960;-45
2021/04/27 05:47:22;;;;;;;0.00;0.00;;;12.90;59.30;;;;;;4159512;28;20041;-44
2021/04/27 05:49:44;;;;;;;0.00;0.00;;;12.90;59.40;;;;;;4158510;28;20128;-45
2021/04/27 05:52:05;;;;;;;0.00;0.00;;;12.90;59.30;;;;;;4143256;28;20053;-45
2021/04/27 05:54:27;;;;;;;0.00;0.00;;;13.00;59.40;;;;;;4142900;28;20048;-44
2021/04/27 05:56:48;;;;;;;0.00;0.00;;;13.00;60.10;;;;;;4159069;28;20050;-44
2021/04/27 05:59:10;;;;;;;0.00;0.00;;;13.00;59.20;;;;;;4158954;28;20107;-43
2021/04/27 06:01:31;;;;;;;0.00;0.00;;;13.00;58.90;;;;;;4158477;28;20049;-44
2021/04/27 06:03:52;;;;;;;0.10;0.10;;;13.10;58.80;;;;;;4158833;28;20045;-43
2021/04/27 06:06:13;;;;;;;0.45;0.45;;;13.10;58.60;;;;;;4158480;28;20467;-44
2021/04/27 06:08:34;;;;;;;0.00;0.00;;;13.10;58.50;;;;;;4158920;28;20049;-44
2021/04/27 06:10:56;;;;;;;0.00;0.00;;;13.10;58.30;;;;;;4158542;28;20050;-44
2021/04/27 06:13:18;;;;;;;0.00;0.00;;;13.10;58.90;;;;;;4156986;28;20057;-48
2021/04/27 06:15:39;;;;;;;0.08;0.08;;;13.10;58.50;;;;;;4158817;28;20053;-44
2021/04/27 06:18:00;;;;;;;0.00;0.00;;;13.10;59.60;;;;;;4144184;28;20535;-50
2021/04/27 06:20:21;;;;;;;0.00;0.00;;;13.20;59.50;;;;;;4142932;28;20057;-44
2021/04/27 06:22:42;;;;;;;0.30;0.30;;;13.20;58.90;;;;;;4142754;28;20050;-44
2021/04/27 06:25:04;;;;;;;0.00;0.00;;;13.20;58.60;;;;;;4142789;28;20053;-46
2021/04/27 06:27:28;;;;;;;0.00;0.00;;;13.20;58.30;;;;;;4142713;28;20492;-45
2021/04/27 06:29:50;;;;;;;0.00;0.00;;;13.20;58.10;;;;;;4137211;28;20535;-44
2021/04/27 06:32:11;;;;;;;0.00;0.00;;;13.30;58.10;;;;;;4137338;28;20038;-45
2021/04/27 06:34:32;;;;;;;0.20;0.20;;;13.30;57.90;;;;;;4127955;28;20456;-44
2021/04/27 06:36:53;;;;;;;2.35;0.52;;;13.20;57.70;;;;;;4142539;28;20135;-43
2021/04/27 06:39:15;;;;;;;0.00;0.00;;;13.30;57.60;;;;;;4142133;28;20054;-45
2021/04/27 06:41:36;;;;;;;0.00;0.00;;;13.30;57.50;;;;;;4142520;28;20078;-43
2021/04/27 06:43:58;;;;;;;0.00;0.00;;;13.30;57.30;;;;;;4143679;28;20511;-44
2021/04/27 06:46:19;;;;;;;0.40;0.22;;;13.30;57.10;;;;;;4158413;28;20103;-45
2021/04/27 06:48:40;;;;;;;0.45;0.38;;;13.40;56.80;;;;;;4158172;28;20514;-49
2021/04/27 06:51:02;;;;;;;0.38;0.38;;;13.40;56.60;;;;;;4158400;28;20835;-49
2021/04/27 06:53:23;;;;;;;0.55;0.55;;;13.50;56.30;;;;;;4158266;28;20132;-44
2021/04/27 06:55:44;;;;;;;0.00;0.00;;;13.50;56.20;;;;;;4158185;28;20041;-49
2021/04/27 06:58:06;;;;;;;;;;;13.50;56.00;;;;;;4158139;28;20046;-48
2021/04/27 07:00:28;;;;;;;0.00;0.00;;;13.50;55.90;;;;;;4157992;28;20371;-44
2021/04/27 07:02:49;;;;;;;0.00;0.00;;;13.60;55.40;;;;;;4158195;28;20099;-47
2021/04/27 07:05:11;;;;;;;0.03;0.03;;;13.60;55.30;;;;;;4158110;28;20503;-43
2021/04/27 07:07:32;;;;;;;0.00;0.00;;;13.60;55.40;;;;;;4157937;28;20535;-43
2021/04/27 07:09:53;;;;;;;0.00;0.00;;;13.70;55.20;;;;;;4157329;28;20049;-43
2021/04/27 07:12:14;;;;;;;0.28;0.28;;;13.70;54.90;;;;;;4156848;28;20061;-44
2021/04/27 07:14:35;;;;;;;0.00;0.00;;;13.70;54.40;;;;;;4157568;28;20045;-43
2021/04/27 07:17:01;;;;;;;0.00;0.00;;;13.80;54.40;;;;;;4158311;28;20049;-44
2021/04/27 07:19:23;;;;;;;0.00;0.00;;;13.80;54.30;;;;;;4157842;28;20053;-44
2021/04/27 07:21:44;;;;;;;0.00;0.00;;;13.80;54.20;;;;;;4142939;28;20136;-45
2021/04/27 07:24:05;;;;;;;0.00;0.00;;;13.80;54.20;;;;;;4157776;28;20053;-44
2021/04/27 07:26:27;;;;;;;0.00;0.00;;;13.80;53.90;;;;;;4157495;28;20045;-47
2021/04/27 07:28:48;;;;;;;0.00;0.00;;;13.80;53.90;;;;;;4157991;28;20408;-45
2021/04/27 07:31:09;;;;;;;;;;;13.90;54.10;;;;;;4158285;28;20159;-44
2021/04/27 07:33:30;;;;;;;0.00;0.00;;;13.90;53.70;;;;;;4157894;28;19975;-44
2021/04/27 07:35:52;;;;;;;0.00;0.00;;;13.90;53.90;;;;;;4157651;28;20671;-45
2021/04/27 07:38:12;;;;;;;0.00;0.00;;;13.90;54.00;;;;;;4157355;28;20042;-43
2021/04/27 07:40:36;;;;;;;0.00;0.00;;;13.90;53.90;;;;;;4157706;28;20069;-44
2021/04/27 07:42:57;;;;;;;0.35;0.35;;;13.90;53.30;;;;;;4141611;28;20376;-44
2021/04/27 07:45:19;;;;;;;2.08;0.47;;;13.90;53.70;;;;;;4142725;28;20444;-44
2021/04/27 07:47:39;;;;;;;0.00;0.00;;;13.90;53.50;;;;;;4157203;28;20045;-44
2021/04/27 07:50:02;;;;;;;0.00;0.00;;;14.00;54.10;;;;;;4157789;28;20497;-46
2021/04/27 07:52:27;;;;;;;0.00;0.00;;;14.00;54.20;;;;;;4141436;28;20125;-44
2021/04/27 07:54:47;;;;;;;0.00;0.00;;;14.00;54.10;;;;;;4141233;28;20057;-47
2021/04/27 07:57:08;;;;;;;0.10;0.10;;;14.00;53.70;;;;;;4142650;28;20074;-48
2021/04/27 07:59:29;;;;;;;0.40;0.40;;;14.00;53.80;;;;;;4156904;28;20459;-44
2021/04/27 08:01:51;;;;;;;0.00;0.00;;;14.00;53.70;;;;;;4151226;28;20056;-44
2021/04/27 08:04:13;;;;;;;0.25;0.25;;;14.00;53.70;;;;;;4157489;28;20046;-45
2021/04/27 08:06:36;;;;;;;1.65;1.55;;;14.00;53.90;;;;;;4157320;28;20496;-44
2021/04/27 08:09:00;;;;;;;0.00;0.00;;;14.00;53.50;;;;;;4141178;28;20049;-44
2021/04/27 08:11:23;;;;;;;0.00;0.00;;;14.10;53.60;;;;;;4144898;28;20052;-44
2021/04/27 08:13:44;;;;;;;0.13;0.13;;;14.10;53.10;;;;;;4160486;28;20045;-47
2021/04/27 08:16:05;;;;;;;;;;;14.10;53.00;;;;;;4161039;28;20049;-44
2021/04/27 08:18:27;;;;;;;0.00;0.00;;;14.10;52.90;;;;;;4160456;28;19931;-44
2021/04/27 08:20:48;;;;;;;;;;;14.10;53.00;;;;;;4161260;28;20052;-46
2021/04/27 08:23:10;;;;;;;0.47;0.47;;;14.10;52.90;;;;;;4145720;28;19929;-45
2021/04/27 08:25:48;;;;;;;0.00;0.00;;;14.20;53.20;;;;;;4160309;28;20057;-44
2021/04/27 08:28:10;;;;;;;0.30;0.30;;;14.20;53.30;;;;;;4160421;28;20046;-46
2021/04/27 08:30:33;;;;;;;0.00;0.00;;;14.20;53.00;;;;;;4160572;28;20049;-43
2021/04/27 08:32:54;;;;;;;0.32;0.32;;;14.20;52.80;;;;;;4160287;28;20458;-43
2021/04/27 08:35:16;;;;;;;0.00;0.00;;;14.20;52.90;;;;;;4159920;28;20179;-45
2021/04/27 08:37:37;;;;;;;;;;;14.30;53.30;;;;;;4160313;28;20042;-44
2021/04/27 08:40:00;;;;;;;0.00;0.00;;;14.30;52.30;;;;;;4160136;28;19921;-44
2021/04/27 08:42:22;;;;;;;0.30;0.30;;;14.30;52.20;;;;;;4160303;28;20046;-44
2021/04/27 08:44:43;;;;;;;;;;;14.30;52.20;;;;;;4161005;28;20051;-48
2021/04/27 08:47:04;;;;;;;0.30;0.30;;;14.30;52.10;;;;;;4160454;28;19928;-44
2021/04/27 08:49:25;;;;;;;0.30;0.30;;;14.40;52.10;;;;;;4160615;28;20131;-43
2021/04/27 08:51:46;;;;;;;0.08;0.08;;;14.40;52.00;;;;;;4160492;28;20061;-45
2021/04/27 08:54:13;;;;;;;0.15;0.15;;;14.40;51.90;;;;;;4160182;28;20053;-47
2021/04/27 08:56:35;;;;;;;1.20;1.10;;;14.40;51.80;;;;;;4159127;28;20115;-44
2021/04/27 08:58:56;;;;;;;7.68;0.70;;;14.40;51.50;;;;;;4159901;28;20534;-45
2021/04/27 09:01:17;;;;;;;0.38;0.38;;;14.50;51.40;;;;;;4144239;28;20107;-44
2021/04/27 09:03:43;;;;;;;0.30;0.30;;;14.50;51.30;;;;;;4143780;28;20140;-44
2021/04/27 09:06:13;;;;;;;0.00;0.00;;;14.50;51.10;;;;;;4143814;28;20055;-44
2021/04/27 09:08:35;;;;;;;0.10;0.10;;;14.60;51.00;;;;;;4159892;28;20064;-45
2021/04/27 09:10:56;;;;;;;0.30;0.30;;;14.60;50.80;;;;;;4159838;28;20041;-44
2021/04/27 09:13:19;;;;;;;0.00;0.00;;;14.60;50.70;;;;;;4159655;28;20064;-47
2021/04/27 09:15:45;;;;;;;0.65;0.65;;;14.70;50.60;;;;;;4159710;28;20049;-44
2021/04/27 09:18:28;;;;;;;0.00;0.00;;;14.70;50.50;;;;;;4158995;28;20794;-44
2021/04/27 09:20:51;;;;;;;0.90;0.75;;;14.70;50.40;;;;;;4159414;28;20049;-44
2021/04/27 09:23:13;;;;;;;0.65;0.52;;;14.80;50.30;;;;;;4159623;28;20137;-44
2021/04/27 09:25:34;;;;;;;3.35;1.55;;;14.80;50.10;;;;;;4159178;28;20492;-44
2021/04/27 09:27:55;;;;;;;0.00;0.00;;;14.80;50.10;;;;;;4159622;28;20111;-44
2021/04/27 09:30:19;;;;;;;;;;;14.90;50.10;;;;;;4159934;28;20440;-44
2021/04/27 09:32:42;;;;;;;0.00;0.00;;;14.90;49.90;;;;;;4159326;28;19979;-45
2021/04/27 09:35:38;;;;;;;0.00;0.00;;;14.90;49.70;;;;;;4159428;28;20045;-47
2021/04/27 09:38:10;;;;;;;0.00;0.00;;;14.90;49.60;;;;;;4107720;28;20101;-46
2021/04/27 09:40:31;;;;;;;0.00;0.00;;;14.90;49.30;;;;;;4107983;28;20054;-47
2021/04/27 09:43:03;;;;;;;0.00;0.00;;;15.00;49.20;;;;;;4125113;28;20041;-48
2021/04/27 09:45:25;;;;;;;0.00;0.00;;;15.00;49.10;;;;;;4159403;28;20124;-45
2021/04/27 09:47:52;;;;;;;0.00;0.00;;;15.00;48.90;;;;;;4159667;28;20758;-45
2021/04/27 09:50:13;;;;;;;0.00;0.00;;;15.10;48.90;;;;;;4143126;28;20503;-46
2021/04/27 09:52:43;;;;;;;0.00;0.00;;;15.10;48.80;;;;;;4143237;28;20049;-44
2021/04/27 09:55:08;;;;;;;0.00;0.00;;;15.10;48.80;;;;;;4143271;28;20053;-47
2021/04/27 09:57:31;;;;;;;0.03;0.03;;;15.20;48.70;;;;;;4142455;28;20053;-44
2021/04/27 09:59:52;;;;;;;0.00;0.00;;;15.20;48.50;;;;;;4135600;28;20053;-45
2021/04/27 10:02:14;;;;;;;0.20;0.20;;;15.20;48.40;;;;;;4158255;28;20504;-45
2021/04/27 10:04:38;;;;;;;0.20;0.20;;;15.20;48.40;;;;;;4157899;28;20049;-45
2021/04/27 10:07:00;;;;;;;0.90;0.90;;;15.20;48.30;;;;;;4158083;28;20052;-45
2021/04/27 10:09:22;;;;;;;0.10;0.10;;;15.30;48.20;;;;;;4158889;28;20063;-44
2021/04/27 10:11:43;;;;;;;;;;;15.30;48.10;;;;;;4159029;28;20064;-44
2021/04/27 10:14:06;;;;;;;0.10;0.10;;;15.30;48.10;;;;;;4158932;28;20337;-46
2021/04/27 10:16:27;;;;;;;0.00;0.00;;;15.30;47.90;;;;;;4157941;28;20049;-44
2021/04/27 10:18:54;;;;;;;0.90;0.90;;;15.30;47.80;;;;;;4158702;28;20053;-45
2021/04/27 10:21:15;;;;;;;0.00;0.00;;;15.30;47.70;;;;;;4158664;28;20053;-44
2021/04/27 10:23:59;;;;;;;0.00;0.00;;;15.40;47.70;;;;;;4144691;28;20056;-43
2021/04/27 10:26:21;;;;;;;0.08;0.08;;;15.40;47.50;;;;;;4141049;28;20056;-46
2021/04/27 10:29:00;;;;;;;0.00;0.00;;;15.40;47.30;;;;;;4158579;28;20061;-44
2021/04/27 10:31:21;;;;;;;0.05;0.05;;;15.40;47.20;;;;;;4157759;28;20053;-43
2021/04/27 10:33:59;;;;;;;0.00;0.00;;;15.40;47.10;;;;;;4158744;28;20155;-47
2021/04/27 10:36:20;;;;;;;0.13;0.13;;;15.40;47.00;;;;;;4157232;28;20358;-44
2021/04/27 10:38:48;;;;;;;0.00;0.00;;;15.50;47.00;;;;;;4158112;28;20163;-44
2021/04/27 10:41:12;;;;;;;0.50;0.50;;;15.50;46.80;;;;;;4157637;28;20377;-46
2021/04/27 10:43:42;;;;;;;0.00;0.00;;;15.50;46.80;;;;;;4158205;28;20041;-44
2021/04/27 10:46:06;;;;;;;0.17;0.17;;;15.50;46.60;;;;;;4157995;28;20073;-44
2021/04/27 10:48:28;;;;;;;0.00;0.00;;;15.50;46.70;;;;;;4158527;28;20585;-44
2021/04/27 10:50:50;;;;;;;0.20;0.20;;;15.50;46.70;;;;;;4158119;28;20081;-44
2021/04/27 10:53:29;;;;;;;0.47;0.47;;;15.60;46.70;;;;;;4157816;28;20128;-45
2021/04/27 10:55:52;;;;;;;0.03;0.03;;;15.60;46.70;;;;;;4142989;28;20072;-44
2021/04/27 10:58:13;;;;;;;0.08;0.08;;;15.60;46.50;;;;;;4158268;28;20428;-51
2021/04/27 11:00:44;;;;;;;0.20;0.20;;;15.60;46.50;;;;;;4158005;28;20083;-48
2021/04/27 11:03:17;;;;;;;0.20;0.20;;;15.60;46.20;;;;;;4158489;28;20385;-50
2021/04/27 11:05:59;;;;;;;0.00;0.00;;;15.60;46.20;;;;;;4158556;28;20476;-44
2021/04/27 11:08:20;;;;;;;0.00;0.00;;;15.60;46.20;;;;;;4158046;28;20057;-43
2021/04/27 11:10:43;;;;;;;0.00;0.00;;;15.60;46.10;;;;;;4158512;28;20057;-46
2021/04/27 11:13:08;;;;;;;0.00;0.00;;;15.70;46.00;;;;;;4156491;28;20046;-44
2021/04/27 11:15:32;;;;;;;0.17;0.17;;;15.70;45.90;;;;;;4158338;28;20045;-44
2021/04/27 11:18:08;;;;;;;0.38;0.38;;;15.70;45.90;;;;;;4157930;28;20053;-44
2021/04/27 11:20:49;;;;;;;0.52;0.35;;;15.70;45.80;;;;;;4157930;28;20053;-44
2021/04/27 11:23:32;;;;;;;;;;;15.70;45.60;;;;;;4158787;28;20049;-48
2021/04/27 11:25:53;;;;;;;0.00;0.00;;;15.70;44.50;;;;;;4157918;28;20339;-43
2021/04/27 11:28:16;;;;;;;0.20;0.20;;;15.70;45.00;;;;;;4158129;28;20522;-44
2021/04/27 11:30:36;;;;;;;0.10;0.10;;;15.70;44.40;;;;;;4141529;28;20050;-44
2021/04/27 11:33:03;;;;;;;0.20;0.20;;;15.70;45.10;;;;;;4158146;28;20053;-45
2021/04/27 11:35:24;;;;;;;0.00;0.00;;;15.80;44.20;;;;;;4141991;28;20060;-44
2021/04/27 11:37:48;;;;;;;0.63;0.63;;;15.80;44.30;;;;;;4141713;28;20507;-43
2021/04/27 11:40:20;;;;;;;1.13;1.08;;;15.80;44.20;;;;;;4141827;28;20161;-44
2021/04/27 11:42:41;;;;;;;0.43;0.43;;;15.80;43.60;;;;;;4156358;28;20045;-44
2021/04/27 11:45:07;;;;;;;0.10;0.10;;;15.80;43.60;;;;;;4157883;28;20045;-44
2021/04/27 11:47:34;;;;;;;0.00;0.00;;;15.80;44.00;;;;;;4151941;28;20049;-44
2021/04/27 11:49:58;;;;;;;0.00;0.00;;;15.80;43.80;;;;;;4144993;28;20045;-45
2021/04/27 11:52:49;;;;;;;0.00;0.00;;;15.80;43.60;;;;;;4144985;28;20465;-44
2021/04/27 11:55:15;;;;;;;0.22;0.22;;;15.80;43.10;;;;;;4144634;28;20501;-44
2021/04/27 11:57:43;;;;;;;0.17;0.17;;;15.80;43.10;;;;;;4129034;28;20046;-44
2021/04/27 12:00:05;;;;;;;0.45;0.43;;;15.80;42.90;;;;;;4128350;28;20108;-44
2021/04/27 12:02:31;;;;;;;0.05;0.05;;;15.80;43.00;;;;;;4128876;28;20042;-44
2021/04/27 12:04:52;;;;;;;0.08;0.08;;;15.80;42.50;;;;;;4144524;28;20053;-44
2021/04/27 12:07:13;;;;;;;0.03;0.03;;;15.80;42.60;;;;;;4150148;28;20054;-45
2021/04/27 12:09:41;;;;;;;0.00;0.00;;;15.80;42.60;;;;;;4160961;28;20509;-45
2021/04/27 12:12:08;;;;;;;0.00;0.00;;;15.80;42.40;;;;;;4160322;28;20041;-44
2021/04/27 12:14:30;;;;;;;0.75;0.75;;;15.80;42.50;;;;;;4160774;28;20045;-44
2021/04/27 12:16:51;;;;;;;0.00;0.00;;;15.90;42.60;;;;;;4160109;28;20054;-44
2021/04/27 12:19:15;;;;;;;0.17;0.17;;;15.90;42.50;;;;;;4160350;28;20400;-44
2021/04/27 12:21:43;;;;;;;0.20;0.20;;;15.90;42.60;;;;;;4159928;28;20519;-45
2021/04/27 12:24:15;;;;;;;0.00;0.00;;;15.90;44.00;;;;;;4158215;28;20056;-44
2021/04/27 12:26:37;;;;;;;0.25;0.25;;;15.90;44.70;;;;;;4159101;28;20484;-44
2021/04/27 12:28:59;;;;;;;0.30;0.15;;;16.00;45.30;;;;;;4144644;28;20049;-44
2021/04/27 12:31:24;;;;;;;0.00;0.00;;;15.90;45.20;;;;;;4145738;28;20049;-44
2021/04/27 12:33:56;;;;;;;0.30;0.20;;;15.90;45.00;;;;;;4159986;28;20566;-44
2021/04/27 12:36:19;;;;;;;0.20;0.20;;;15.90;44.80;;;;;;4160088;28;20056;-45
2021/04/27 12:38:40;;;;;;;0.00;0.00;;;15.90;44.00;;;;;;4144482;28;20070;-44